createdAt,value
2018-12-30T00:00:28.495Z,0
2018-12-30T00:01:28.702Z,0
2018-12-30T00:02:28.864Z,0
2018-12-30T00:03:29.382Z,0
2018-12-30T00:04:29.072Z,0
2018-12-30T00:05:28.047Z,0
2018-12-30T00:06:29.140Z,0
2018-12-30T00:07:28.186Z,0
2018-12-30T00:08:28.293Z,0
2018-12-30T00:09:27.825Z,0
2018-12-30T00:10:28.464Z,0
2018-12-30T00:11:28.433Z,0
2018-12-30T00:12:28.303Z,0
2018-12-30T00:13:28.054Z,0
2018-12-30T00:14:28.102Z,0
2018-12-30T00:15:28.039Z,0
2018-12-30T00:16:28.049Z,0
2018-12-30T00:17:28.619Z,0
2018-12-30T00:18:27.998Z,0
2018-12-30T00:19:29.898Z,0
2018-12-30T00:20:28.236Z,0
2018-12-30T00:21:27.781Z,0
2018-12-30T00:22:28.008Z,0
2018-12-30T00:23:28.202Z,0
2018-12-30T00:24:28.218Z,0
2018-12-30T00:25:28.653Z,0
2018-12-30T00:26:28.028Z,0
2018-12-30T00:27:28.255Z,0
2018-12-30T00:28:28.175Z,0
2018-12-30T00:29:27.950Z,0
2018-12-30T00:30:28.196Z,0
2018-12-30T00:31:28.259Z,0
2018-12-30T00:32:27.901Z,0
2018-12-30T00:33:28.231Z,0
2018-12-30T00:34:28.695Z,0
2018-12-30T00:35:28.094Z,0
2018-12-30T00:36:27.879Z,0
2018-12-30T00:37:27.866Z,0
2018-12-30T00:38:27.862Z,0
2018-12-30T00:39:28.076Z,0
2018-12-30T00:40:27.803Z,0
2018-12-30T00:41:28.112Z,0
2018-12-30T00:42:28.487Z,0
2018-12-30T00:43:27.786Z,0
2018-12-30T00:44:27.799Z,0
2018-12-30T00:45:27.785Z,0
2018-12-30T00:46:28.070Z,0
2018-12-30T00:47:27.731Z,0
2018-12-30T00:48:27.985Z,0
2018-12-30T00:49:32.285Z,0
2018-12-30T00:50:28.776Z,0
2018-12-30T00:51:28.042Z,0
2018-12-30T00:52:27.725Z,0
2018-12-30T00:53:27.731Z,0
2018-12-30T00:54:27.712Z,0
2018-12-30T00:55:27.992Z,0
2018-12-30T00:56:27.224Z,0
2018-12-30T00:57:27.678Z,0
2018-12-30T00:58:28.116Z,0
2018-12-30T00:59:27.647Z,0
2018-12-30T01:00:27.924Z,0
2018-12-30T01:01:27.643Z,0
2018-12-30T01:02:27.886Z,0
2018-12-30T01:03:27.634Z,0
2018-12-30T01:04:29.775Z,0
2018-12-30T01:05:27.351Z,0
2018-12-30T01:06:28.198Z,0
2018-12-30T01:07:27.617Z,0
2018-12-30T01:08:27.916Z,0
2018-12-30T01:09:27.398Z,0
2018-12-30T01:10:27.816Z,0
2018-12-30T01:11:27.788Z,0
2018-12-30T01:12:27.841Z,0
2018-12-30T01:13:27.791Z,0
2018-12-30T01:14:27.724Z,0
2018-12-30T01:15:27.740Z,0
2018-12-30T01:16:27.780Z,0
2018-12-30T01:17:27.787Z,0
2018-12-30T01:18:27.503Z,0
2018-12-30T01:19:27.739Z,0
2018-12-30T01:20:27.619Z,0
2018-12-30T01:21:31.993Z,0
2018-12-30T01:22:27.886Z,0
2018-12-30T01:23:28.262Z,0
2018-12-30T01:24:27.700Z,0
2018-12-30T01:25:27.684Z,0
2018-12-30T01:26:27.685Z,0
2018-12-30T01:27:27.426Z,0
2018-12-30T01:28:27.458Z,0
2018-12-30T01:29:27.392Z,0
2018-12-30T01:30:27.143Z,0
2018-12-30T01:31:28.079Z,0
2018-12-30T01:32:27.638Z,0
2018-12-30T01:33:27.678Z,0
2018-12-30T01:34:27.385Z,0
2018-12-30T01:35:27.136Z,0
2018-12-30T01:36:27.680Z,0
2018-12-30T01:37:27.599Z,0
2018-12-30T01:38:27.328Z,0
2018-12-30T01:39:27.817Z,0
2018-12-30T01:40:28.066Z,0
2018-12-30T01:41:27.091Z,0
2018-12-30T01:42:27.549Z,0
2018-12-30T01:43:27.285Z,0
2018-12-30T01:44:27.292Z,0
2018-12-30T01:45:27.032Z,0
2018-12-30T01:46:27.109Z,0
2018-12-30T01:47:27.502Z,0
2018-12-30T01:48:27.546Z,0
2018-12-30T01:49:27.010Z,0
2018-12-30T01:50:29.230Z,0
2018-12-30T01:51:35.359Z,0
2018-12-30T01:52:27.496Z,0
2018-12-30T01:53:27.216Z,0
2018-12-30T01:54:27.434Z,0
2018-12-30T01:55:27.178Z,0
2018-12-30T01:56:27.278Z,0
2018-12-30T01:57:27.257Z,0
2018-12-30T01:58:26.677Z,0
2018-12-30T01:59:27.396Z,0
2018-12-30T02:00:27.408Z,0
2018-12-30T02:01:27.011Z,0
2018-12-30T02:02:27.152Z,0
2018-12-30T02:03:26.863Z,0
2018-12-30T02:04:27.154Z,0
2018-12-30T02:05:27.898Z,0
2018-12-30T02:06:27.167Z,0
2018-12-30T02:07:27.096Z,0
2018-12-30T02:08:27.060Z,0
2018-12-30T02:09:27.067Z,0
2018-12-30T02:10:27.265Z,0
2018-12-30T02:11:27.106Z,0
2018-12-30T02:12:27.090Z,0
2018-12-30T02:13:27.258Z,0
2018-12-30T02:14:27.883Z,0
2018-12-30T02:15:27.017Z,0
2018-12-30T02:16:27.058Z,0
2018-12-30T02:17:26.801Z,0
2018-12-30T02:18:26.953Z,0
2018-12-30T02:19:26.963Z,0
2018-12-30T02:20:27.505Z,0
2018-12-30T02:21:27.063Z,0
2018-12-30T02:22:27.119Z,0
2018-12-30T02:23:27.541Z,0
2018-12-30T02:24:26.670Z,0
2018-12-30T02:25:27.158Z,0
2018-12-30T02:26:26.980Z,0
2018-12-30T02:27:27.168Z,0
2018-12-30T02:28:26.895Z,0
2018-12-30T02:29:26.894Z,0
2018-12-30T02:30:27.135Z,0
2018-12-30T02:31:27.128Z,0
2018-12-30T02:32:27.175Z,0
2018-12-30T02:33:26.368Z,0
2018-12-30T02:34:26.355Z,0
2018-12-30T02:35:26.642Z,0
2018-12-30T02:36:26.860Z,0
2018-12-30T02:37:27.055Z,0
2018-12-30T02:38:26.821Z,0
2018-12-30T02:39:27.044Z,0
2018-12-30T02:40:27.720Z,0
2018-12-30T02:41:27.138Z,0
2018-12-30T02:42:26.783Z,0
2018-12-30T02:43:26.551Z,0
2018-12-30T02:44:27.042Z,0
2018-12-30T02:45:26.758Z,0
2018-12-30T02:46:26.538Z,0
2018-12-30T02:47:26.987Z,0
2018-12-30T02:48:26.489Z,0
2018-12-30T02:49:27.417Z,0
2018-12-30T02:50:27.921Z,0
2018-12-30T02:51:26.766Z,0
2018-12-30T02:52:26.473Z,0
2018-12-30T02:53:26.933Z,0
2018-12-30T02:54:26.685Z,0
2018-12-30T02:55:26.695Z,0
2018-12-30T02:56:26.967Z,0
2018-12-30T02:57:26.654Z,0
2018-12-30T02:58:27.486Z,0
2018-12-30T02:59:26.672Z,0
2018-12-30T03:00:26.647Z,0
2018-12-30T03:01:26.713Z,0
2018-12-30T03:02:26.838Z,0
2018-12-30T03:03:26.347Z,0
2018-12-30T03:04:26.830Z,0
2018-12-30T03:05:26.893Z,0
2018-12-30T03:06:26.866Z,0
2018-12-30T03:07:27.067Z,0
2018-12-30T03:08:26.300Z,0
2018-12-30T03:09:26.785Z,0
2018-12-30T03:10:26.545Z,0
2018-12-30T03:11:26.844Z,0
2018-12-30T03:12:26.524Z,0
2018-12-30T03:13:26.792Z,0
2018-12-30T03:14:26.243Z,0
2018-12-30T03:15:26.514Z,0
2018-12-30T03:16:27.076Z,0
2018-12-30T03:17:26.256Z,0
2018-12-30T03:18:26.227Z,0
2018-12-30T03:19:26.740Z,0
2018-12-30T03:20:31.515Z,0
2018-12-30T03:21:26.815Z,0
2018-12-30T03:22:26.699Z,0
2018-12-30T03:23:26.681Z,0
2018-12-30T03:24:26.430Z,0
2018-12-30T03:25:26.405Z,0
2018-12-30T03:26:26.519Z,0
2018-12-30T03:27:26.667Z,0
2018-12-30T03:28:26.628Z,0
2018-12-30T03:29:26.131Z,0
2018-12-30T03:30:26.562Z,0
2018-12-30T03:31:26.476Z,0
2018-12-30T03:32:26.464Z,0
2018-12-30T03:33:26.605Z,0
2018-12-30T03:34:26.091Z,0
2018-12-30T03:35:26.611Z,0
2018-12-30T03:36:26.112Z,0
2018-12-30T03:37:26.546Z,0
2018-12-30T03:38:26.288Z,0
2018-12-30T03:39:26.613Z,0
2018-12-30T03:40:26.548Z,0
2018-12-30T03:41:26.533Z,0
2018-12-30T03:42:27.572Z,0
2018-12-30T03:43:26.277Z,0
2018-12-30T03:44:26.249Z,0
2018-12-30T03:45:26.480Z,0
2018-12-30T03:46:26.290Z,0
2018-12-30T03:47:26.504Z,0
2018-12-30T03:48:26.239Z,0
2018-12-30T03:49:26.446Z,0
2018-12-30T03:50:25.993Z,0
2018-12-30T03:51:29.970Z,0
2018-12-30T03:52:26.427Z,0
2018-12-30T03:53:26.413Z,0
2018-12-30T03:54:26.422Z,0
2018-12-30T03:55:26.178Z,0
2018-12-30T03:56:26.188Z,0
2018-12-30T03:57:26.165Z,0
2018-12-30T03:58:26.378Z,0
2018-12-30T03:59:26.375Z,0
2018-12-30T04:00:26.389Z,0
2018-12-30T04:01:26.430Z,0
2018-12-30T04:02:26.130Z,0
2018-12-30T04:03:26.366Z,0
2018-12-30T04:04:26.077Z,0
2018-12-30T04:05:26.319Z,0
2018-12-30T04:06:29.577Z,0
2018-12-30T04:07:26.305Z,0
2018-12-30T04:08:26.315Z,0
2018-12-30T04:09:25.548Z,0
2018-12-30T04:10:26.048Z,0
2018-12-30T04:11:26.358Z,0
2018-12-30T04:12:26.264Z,0
2018-12-30T04:13:26.264Z,0
2018-12-30T04:14:25.509Z,0
2018-12-30T04:15:26.274Z,0
2018-12-30T04:16:25.531Z,0
2018-12-30T04:17:25.984Z,0
2018-12-30T04:18:25.720Z,0
2018-12-30T04:19:25.959Z,0
2018-12-30T04:20:26.189Z,0
2018-12-30T04:21:25.744Z,0
2018-12-30T04:22:27.037Z,0
2018-12-30T04:23:26.184Z,0
2018-12-30T04:24:26.164Z,0
2018-12-30T04:25:25.907Z,0
2018-12-30T04:26:25.757Z,0
2018-12-30T04:27:26.141Z,0
2018-12-30T04:28:26.125Z,0
2018-12-30T04:29:25.907Z,0
2018-12-30T04:30:26.129Z,0
2018-12-30T04:31:25.932Z,0
2018-12-30T04:32:26.083Z,0
2018-12-30T04:33:26.100Z,0
2018-12-30T04:34:26.093Z,0
2018-12-30T04:35:25.824Z,0
2018-12-30T04:36:25.915Z,0
2018-12-30T04:37:25.819Z,0
2018-12-30T04:38:25.652Z,0
2018-12-30T04:39:26.037Z,0
2018-12-30T04:40:26.017Z,0
2018-12-30T04:41:26.083Z,0
2018-12-30T04:42:26.049Z,0
2018-12-30T04:43:26.420Z,0
2018-12-30T04:44:25.777Z,0
2018-12-30T04:45:26.007Z,0
2018-12-30T04:46:26.023Z,0
2018-12-30T04:47:25.763Z,0
2018-12-30T04:48:25.982Z,0
2018-12-30T04:49:25.479Z,0
2018-12-30T04:50:25.955Z,0
2018-12-30T04:51:25.777Z,0
2018-12-30T04:52:36.994Z,0
2018-12-30T04:53:25.977Z,0
2018-12-30T04:54:25.682Z,0
2018-12-30T04:55:25.921Z,0
2018-12-30T04:56:25.995Z,0
2018-12-30T04:57:25.907Z,0
2018-12-30T04:58:25.911Z,0
2018-12-30T04:59:25.895Z,0
2018-12-30T05:00:25.922Z,0
2018-12-30T05:01:25.962Z,0
2018-12-30T05:02:25.845Z,0
2018-12-30T05:03:25.382Z,0
2018-12-30T05:04:25.575Z,0
2018-12-30T05:05:25.829Z,0
2018-12-30T05:06:25.667Z,0
2018-12-30T05:07:25.321Z,0
2018-12-30T05:08:25.856Z,0
2018-12-30T05:09:25.577Z,0
2018-12-30T05:10:25.536Z,0
2018-12-30T05:11:25.559Z,0
2018-12-30T05:12:25.530Z,0
2018-12-30T05:13:25.785Z,0
2018-12-30T05:14:25.788Z,0
2018-12-30T05:15:25.786Z,0
2018-12-30T05:16:25.916Z,0
2018-12-30T05:17:25.238Z,0
2018-12-30T05:18:25.003Z,0
2018-12-30T05:19:25.717Z,0
2018-12-30T05:20:25.531Z,0
2018-12-30T05:21:25.452Z,0
2018-12-30T05:22:25.205Z,0
2018-12-30T05:23:26.647Z,0
2018-12-30T05:24:25.665Z,0
2018-12-30T05:25:25.667Z,0
2018-12-30T05:26:25.163Z,0
2018-12-30T05:27:25.152Z,0
2018-12-30T05:28:25.157Z,0
2018-12-30T05:29:25.423Z,0
2018-12-30T05:30:25.144Z,0
2018-12-30T05:31:25.696Z,0
2018-12-30T05:32:25.609Z,0
2018-12-30T05:33:25.633Z,0
2018-12-30T05:34:25.100Z,0
2018-12-30T05:35:25.345Z,0
2018-12-30T05:36:25.712Z,0
2018-12-30T05:37:25.312Z,0
2018-12-30T05:38:25.373Z,0
2018-12-30T05:39:25.294Z,0
2018-12-30T05:40:25.553Z,0
2018-12-30T05:41:25.560Z,0
2018-12-30T05:42:25.520Z,0
2018-12-30T05:43:25.043Z,0
2018-12-30T05:44:25.601Z,0
2018-12-30T05:45:25.272Z,0
2018-12-30T05:46:25.618Z,0
2018-12-30T05:47:25.305Z,0
2018-12-30T05:48:24.982Z,0
2018-12-30T05:49:25.330Z,0
2018-12-30T05:50:25.469Z,0
2018-12-30T05:51:24.956Z,0
2018-12-30T05:52:25.217Z,0
2018-12-30T05:53:26.804Z,0
2018-12-30T05:54:25.253Z,0
2018-12-30T05:55:25.168Z,0
2018-12-30T05:56:25.172Z,0
2018-12-30T05:57:25.391Z,0
2018-12-30T05:58:25.443Z,0
2018-12-30T05:59:25.140Z,0
2018-12-30T06:00:25.139Z,0
2018-12-30T06:01:25.201Z,0
2018-12-30T06:02:25.126Z,0
2018-12-30T06:03:25.358Z,0
2018-12-30T06:04:25.384Z,0
2018-12-30T06:05:24.848Z,0
2018-12-30T06:06:25.171Z,0
2018-12-30T06:07:24.587Z,0
2018-12-30T06:08:28.017Z,0
2018-12-30T06:09:25.331Z,0
2018-12-30T06:10:25.080Z,0
2018-12-30T06:11:25.404Z,0
2018-12-30T06:12:25.064Z,0
2018-12-30T06:13:25.281Z,0
2018-12-30T06:14:25.269Z,0
2018-12-30T06:15:25.251Z,0
2018-12-30T06:16:25.012Z,0
2018-12-30T06:17:24.750Z,0
2018-12-30T06:18:25.236Z,0
2018-12-30T06:19:24.984Z,0
2018-12-30T06:20:25.217Z,0
2018-12-30T06:21:25.246Z,0
2018-12-30T06:22:25.226Z,0
2018-12-30T06:23:28.438Z,0
2018-12-30T06:24:24.941Z,0
2018-12-30T06:25:24.933Z,0
2018-12-30T06:26:25.171Z,0
2018-12-30T06:27:25.155Z,0
2018-12-30T06:28:24.666Z,0
2018-12-30T06:29:25.140Z,0
2018-12-30T06:30:24.636Z,0
2018-12-30T06:31:25.199Z,0
2018-12-30T06:32:25.125Z,0
2018-12-30T06:33:24.411Z,0
2018-12-30T06:34:25.140Z,0
2018-12-30T06:35:25.110Z,0
2018-12-30T06:36:25.139Z,0
2018-12-30T06:37:25.084Z,0
2018-12-30T06:38:24.855Z,0
2018-12-30T06:39:25.132Z,0
2018-12-30T06:40:24.825Z,0
2018-12-30T06:41:25.099Z,0
2018-12-30T06:42:24.547Z,0
2018-12-30T06:43:25.031Z,0
2018-12-30T06:44:25.052Z,0
2018-12-30T06:45:25.037Z,0
2018-12-30T06:46:25.144Z,0
2018-12-30T06:47:25.002Z,0
2018-12-30T06:48:24.983Z,0
2018-12-30T06:49:24.997Z,0
2018-12-30T06:50:24.497Z,0
2018-12-30T06:51:25.024Z,4
2018-12-30T06:52:24.970Z,4
2018-12-30T06:53:24.953Z,4
2018-12-30T06:54:25.789Z,0
2018-12-30T06:55:24.933Z,0
2018-12-30T06:56:24.927Z,4
2018-12-30T06:57:24.453Z,4
2018-12-30T06:58:24.941Z,4
2018-12-30T06:59:24.693Z,8
2018-12-30T07:00:24.932Z,4
2018-12-30T07:01:24.761Z,8
2018-12-30T07:02:24.906Z,8
2018-12-30T07:03:24.629Z,12
2018-12-30T07:04:24.390Z,8
2018-12-30T07:05:24.891Z,12
2018-12-30T07:06:24.901Z,12
2018-12-30T07:07:24.848Z,16
2018-12-30T07:08:24.926Z,16
2018-12-30T07:09:25.712Z,20
2018-12-30T07:10:24.369Z,24
2018-12-30T07:11:24.816Z,24
2018-12-30T07:12:24.807Z,32
2018-12-30T07:13:24.861Z,32
2018-12-30T07:14:24.540Z,32
2018-12-30T07:15:24.560Z,36
2018-12-30T07:16:24.828Z,40
2018-12-30T07:17:24.766Z,40
2018-12-30T07:18:24.783Z,44
2018-12-30T07:19:24.755Z,48
2018-12-30T07:20:24.501Z,48
2018-12-30T07:21:24.517Z,52
2018-12-30T07:22:24.745Z,60
2018-12-30T07:23:24.727Z,68
2018-12-30T07:24:23.961Z,76
2018-12-30T07:25:24.200Z,84
2018-12-30T07:26:24.561Z,88
2018-12-30T07:27:25.630Z,92
2018-12-30T07:28:24.448Z,100
2018-12-30T07:29:24.168Z,108
2018-12-30T07:30:24.418Z,112
2018-12-30T07:31:24.196Z,116
2018-12-30T07:32:24.651Z,136
2018-12-30T07:33:25.590Z,148
2018-12-30T07:34:24.405Z,160
2018-12-30T07:35:24.126Z,176
2018-12-30T07:36:24.729Z,188
2018-12-30T07:37:24.444Z,192
2018-12-30T07:38:24.607Z,196
2018-12-30T07:39:24.335Z,208
2018-12-30T07:40:26.651Z,228
2018-12-30T07:41:24.324Z,244
2018-12-30T07:42:24.059Z,248
2018-12-30T07:43:24.318Z,248
2018-12-30T07:44:24.293Z,240
2018-12-30T07:45:24.853Z,248
2018-12-30T07:46:24.667Z,260
2018-12-30T07:47:24.533Z,268
2018-12-30T07:48:24.531Z,300
2018-12-30T07:49:24.528Z,340
2018-12-30T07:50:24.273Z,360
2018-12-30T07:51:24.579Z,356
2018-12-30T07:52:24.235Z,368
2018-12-30T07:53:24.496Z,396
2018-12-30T07:54:24.233Z,388
2018-12-30T07:55:27.709Z,388
2018-12-30T07:56:24.486Z,416
2018-12-30T07:57:24.473Z,448
2018-12-30T07:58:24.194Z,464
2018-12-30T07:59:24.437Z,472
2018-12-30T08:00:24.418Z,508
2018-12-30T08:01:23.968Z,568
2018-12-30T08:02:23.921Z,620
2018-12-30T08:03:24.142Z,644
2018-12-30T08:04:24.134Z,640
2018-12-30T08:05:24.389Z,640
2018-12-30T08:06:24.171Z,640
2018-12-30T08:07:24.373Z,632
2018-12-30T08:08:24.117Z,624
2018-12-30T08:09:24.107Z,608
2018-12-30T08:10:23.933Z,596
2018-12-30T08:11:24.345Z,620
2018-12-30T08:12:23.827Z,648
2018-12-30T08:13:24.061Z,676
2018-12-30T08:14:24.317Z,720
2018-12-30T08:15:24.092Z,756
2018-12-30T08:16:24.137Z,780
2018-12-30T08:17:24.296Z,772
2018-12-30T08:18:23.814Z,760
2018-12-30T08:19:24.270Z,776
2018-12-30T08:20:24.265Z,816
2018-12-30T08:21:24.090Z,812
2018-12-30T08:22:24.245Z,792
2018-12-30T08:23:28.362Z,764
2018-12-30T08:24:24.241Z,756
2018-12-30T08:25:23.976Z,764
2018-12-30T08:26:25.110Z,800
2018-12-30T08:27:23.456Z,852
2018-12-30T08:28:32.144Z,964
2018-12-30T08:29:24.218Z,1068
2018-12-30T08:30:23.999Z,1168
2018-12-30T08:31:23.797Z,1244
2018-12-30T08:32:23.923Z,1296
2018-12-30T08:33:23.930Z,1336
2018-12-30T08:34:23.906Z,1408
2018-12-30T08:35:23.917Z,1504
2018-12-30T08:36:23.750Z,1580
2018-12-30T08:37:24.142Z,1616
2018-12-30T08:38:24.129Z,1672
2018-12-30T08:39:23.628Z,1744
2018-12-30T08:40:24.122Z,1824
2018-12-30T08:41:24.231Z,1868
2018-12-30T08:42:23.842Z,1860
2018-12-30T08:43:24.477Z,1808
2018-12-30T08:44:23.842Z,1748
2018-12-30T08:45:24.076Z,1716
2018-12-30T08:46:23.870Z,1680
2018-12-30T08:47:23.816Z,1616
2018-12-30T08:48:24.036Z,1532
2018-12-30T08:49:23.593Z,1540
2018-12-30T08:50:23.784Z,1600
2018-12-30T08:51:23.837Z,1716
2018-12-30T08:52:23.524Z,1888
2018-12-30T08:53:31.919Z,2108
2018-12-30T08:54:23.852Z,2244
2018-12-30T08:55:23.755Z,2356
2018-12-30T08:56:26.199Z,2588
2018-12-30T08:57:23.560Z,2816
2018-12-30T08:58:23.974Z,2952
2018-12-30T08:59:23.710Z,3024
2018-12-30T09:00:23.219Z,3272
2018-12-30T09:01:30.935Z,3476
2018-12-30T09:02:23.692Z,3544
2018-12-30T09:03:23.675Z,3676
2018-12-30T09:04:23.673Z,3752
2018-12-30T09:05:23.966Z,3848
2018-12-30T09:06:23.840Z,3944
2018-12-30T09:07:23.996Z,3984
2018-12-30T09:08:24.079Z,3808
2018-12-30T09:09:23.979Z,3720
2018-12-30T09:10:23.893Z,3704
2018-12-30T09:11:23.720Z,3520
2018-12-30T09:12:23.930Z,3308
2018-12-30T09:13:23.846Z,3056
2018-12-30T09:14:23.843Z,2804
2018-12-30T09:15:23.099Z,2504
2018-12-30T09:16:23.951Z,2292
2018-12-30T09:17:25.542Z,2064
2018-12-30T09:18:23.085Z,1908
2018-12-30T09:19:23.827Z,1760
2018-12-30T09:20:23.317Z,1644
2018-12-30T09:21:23.631Z,1568
2018-12-30T09:22:23.798Z,1504
2018-12-30T09:23:24.127Z,1448
2018-12-30T09:24:23.554Z,1400
2018-12-30T09:25:23.291Z,1392
2018-12-30T09:26:23.789Z,1396
2018-12-30T09:27:23.886Z,1332
2018-12-30T09:28:23.516Z,1248
2018-12-30T09:29:23.749Z,1196
2018-12-30T09:30:23.485Z,1180
2018-12-30T09:31:23.276Z,1188
2018-12-30T09:32:23.245Z,1120
2018-12-30T09:33:23.489Z,1076
2018-12-30T09:34:23.778Z,1084
2018-12-30T09:35:23.225Z,1152
2018-12-30T09:36:23.706Z,1280
2018-12-30T09:37:23.439Z,1436
2018-12-30T09:38:23.672Z,1696
2018-12-30T09:39:23.428Z,2196
2018-12-30T09:40:23.673Z,2816
2018-12-30T09:41:23.752Z,3100
2018-12-30T09:42:23.982Z,3168
2018-12-30T09:43:23.181Z,3260
2018-12-30T09:44:23.652Z,3360
2018-12-30T09:45:23.635Z,3428
2018-12-30T09:46:23.132Z,3952
2018-12-30T09:47:23.153Z,4292
2018-12-30T09:48:23.621Z,4424
2018-12-30T09:49:23.619Z,4536
2018-12-30T09:50:23.602Z,4680
2018-12-30T09:51:23.671Z,4668
2018-12-30T09:52:23.105Z,4476
2018-12-30T09:53:23.589Z,4216
2018-12-30T09:54:23.578Z,3868
2018-12-30T09:55:23.601Z,3688
2018-12-30T09:56:23.146Z,3644
2018-12-30T09:57:24.021Z,3696
2018-12-30T09:58:23.302Z,3804
2018-12-30T09:59:23.318Z,3900
2018-12-30T10:00:23.563Z,3956
2018-12-30T10:01:23.044Z,4028
2018-12-30T10:02:23.311Z,4048
2018-12-30T10:03:23.018Z,3980
2018-12-30T10:04:23.279Z,3972
2018-12-30T10:05:23.530Z,4060
2018-12-30T10:06:23.293Z,4144
2018-12-30T10:07:23.299Z,4132
2018-12-30T10:08:23.508Z,4008
2018-12-30T10:09:23.483Z,3908
2018-12-30T10:10:23.507Z,3840
2018-12-30T10:11:23.591Z,3784
2018-12-30T10:12:23.517Z,3752
2018-12-30T10:13:23.216Z,3708
2018-12-30T10:14:23.442Z,3652
2018-12-30T10:15:23.215Z,3620
2018-12-30T10:16:23.528Z,3612
2018-12-30T10:17:23.213Z,3572
2018-12-30T10:18:23.455Z,3504
2018-12-30T10:19:23.184Z,3460
2018-12-30T10:20:22.966Z,3416
2018-12-30T10:21:23.035Z,3368
2018-12-30T10:22:23.403Z,3284
2018-12-30T10:23:23.394Z,3252
2018-12-30T10:24:23.392Z,3228
2018-12-30T10:25:23.384Z,3160
2018-12-30T10:26:23.130Z,3088
2018-12-30T10:27:29.041Z,3080
2018-12-30T10:28:23.393Z,3168
2018-12-30T10:29:23.386Z,3348
2018-12-30T10:30:23.402Z,3560
2018-12-30T10:31:23.128Z,3684
2018-12-30T10:32:23.362Z,3728
2018-12-30T10:33:23.365Z,3692
2018-12-30T10:34:23.084Z,3552
2018-12-30T10:35:23.331Z,3376
2018-12-30T10:36:23.139Z,3252
2018-12-30T10:37:23.067Z,3256
2018-12-30T10:38:22.556Z,3400
2018-12-30T10:39:22.811Z,3568
2018-12-30T10:40:23.048Z,3672
2018-12-30T10:41:22.869Z,3724
2018-12-30T10:42:23.299Z,3792
2018-12-30T10:43:23.092Z,3888
2018-12-30T10:44:23.295Z,3952
2018-12-30T10:45:22.760Z,4012
2018-12-30T10:46:23.075Z,4044
2018-12-30T10:47:22.760Z,4092
2018-12-30T10:48:23.006Z,4156
2018-12-30T10:49:23.235Z,4216
2018-12-30T10:50:22.994Z,4192
2018-12-30T10:51:23.275Z,4140
2018-12-30T10:52:22.960Z,4096
2018-12-30T10:53:22.774Z,4092
2018-12-30T10:54:23.196Z,4084
2018-12-30T10:55:22.725Z,3992
2018-12-30T10:56:23.024Z,3888
2018-12-30T10:57:23.197Z,3788
2018-12-30T10:58:23.225Z,3700
2018-12-30T10:59:23.166Z,3596
2018-12-30T11:00:22.918Z,3472
2018-12-30T11:01:23.263Z,3388
2018-12-30T11:02:23.146Z,3356
2018-12-30T11:03:22.887Z,3320
2018-12-30T11:04:23.136Z,3260
2018-12-30T11:05:22.883Z,3232
2018-12-30T11:06:22.978Z,3228
2018-12-30T11:07:22.650Z,3268
2018-12-30T11:08:22.883Z,3368
2018-12-30T11:09:22.628Z,3492
2018-12-30T11:10:23.142Z,3600
2018-12-30T11:11:22.952Z,3676
2018-12-30T11:12:22.845Z,3708
2018-12-30T11:13:26.630Z,3652
2018-12-30T11:14:23.085Z,3540
2018-12-30T11:15:22.816Z,3428
2018-12-30T11:16:22.882Z,3360
2018-12-30T11:17:22.813Z,3376
2018-12-30T11:18:22.800Z,3488
2018-12-30T11:19:23.361Z,3624
2018-12-30T11:20:23.033Z,3708
2018-12-30T11:21:23.164Z,3748
2018-12-30T11:22:22.565Z,3760
2018-12-30T11:23:23.017Z,3752
2018-12-30T11:24:23.018Z,3740
2018-12-30T11:25:23.008Z,3720
2018-12-30T11:26:23.035Z,3704
2018-12-30T11:27:22.762Z,3724
2018-12-30T11:28:22.983Z,3764
2018-12-30T11:29:22.981Z,3780
2018-12-30T11:30:22.735Z,3760
2018-12-30T11:31:22.801Z,3716
2018-12-30T11:32:22.703Z,3648
2018-12-30T11:33:23.049Z,3532
2018-12-30T11:34:22.942Z,3412
2018-12-30T11:35:22.967Z,3332
2018-12-30T11:36:24.783Z,3268
2018-12-30T11:37:22.697Z,3248
2018-12-30T11:38:22.933Z,3236
2018-12-30T11:39:22.670Z,3268
2018-12-30T11:40:22.958Z,3292
2018-12-30T11:41:22.933Z,3248
2018-12-30T11:42:22.416Z,3212
2018-12-30T11:43:22.652Z,3144
2018-12-30T11:44:22.443Z,3080
2018-12-30T11:45:22.880Z,3016
2018-12-30T11:46:22.474Z,2916
2018-12-30T11:47:22.636Z,2784
2018-12-30T11:48:22.630Z,2676
2018-12-30T11:49:22.617Z,2580
2018-12-30T11:50:22.649Z,2528
2018-12-30T11:51:22.889Z,2536
2018-12-30T11:52:22.585Z,2560
2018-12-30T11:53:22.825Z,2528
2018-12-30T11:54:23.483Z,2516
2018-12-30T11:55:22.585Z,2572
2018-12-30T11:56:22.332Z,2576
2018-12-30T11:57:22.311Z,2480
2018-12-30T11:58:22.309Z,2328
2018-12-30T11:59:23.614Z,2220
2018-12-30T12:00:22.815Z,2152
2018-12-30T12:01:22.732Z,2136
2018-12-30T12:02:29.015Z,2112
2018-12-30T12:03:22.865Z,2060
2018-12-30T12:04:22.767Z,2000
2018-12-30T12:05:22.763Z,1904
2018-12-30T12:06:22.504Z,1880
2018-12-30T12:07:22.254Z,1900
2018-12-30T12:08:22.255Z,1916
2018-12-30T12:09:22.504Z,2072
2018-12-30T12:10:22.480Z,2232
2018-12-30T12:11:22.248Z,2276
2018-12-30T12:12:22.220Z,2240
2018-12-30T12:13:22.477Z,2160
2018-12-30T12:14:22.579Z,2124
2018-12-30T12:15:22.446Z,2076
2018-12-30T12:16:22.464Z,2092
2018-12-30T12:17:22.686Z,2172
2018-12-30T12:18:21.962Z,2292
2018-12-30T12:19:22.259Z,2376
2018-12-30T12:20:22.675Z,2392
2018-12-30T12:21:22.171Z,2408
2018-12-30T12:22:22.651Z,2408
2018-12-30T12:23:22.411Z,2364
2018-12-30T12:24:28.998Z,2248
2018-12-30T12:25:22.404Z,2180
2018-12-30T12:26:22.142Z,2124
2018-12-30T12:27:22.622Z,2116
2018-12-30T12:28:22.357Z,2100
2018-12-30T12:29:23.249Z,1988
2018-12-30T12:30:22.581Z,1932
2018-12-30T12:31:22.364Z,1912
2018-12-30T12:32:22.086Z,1912
2018-12-30T12:33:22.329Z,1876
2018-12-30T12:34:22.636Z,1824
2018-12-30T12:35:22.378Z,1844
2018-12-30T12:36:22.339Z,1812
2018-12-30T12:37:22.547Z,1760
2018-12-30T12:38:22.302Z,1748
2018-12-30T12:39:23.093Z,1724
2018-12-30T12:40:22.282Z,1688
2018-12-30T12:41:22.528Z,1644
2018-12-30T12:42:22.552Z,1656
2018-12-30T12:43:22.517Z,1688
2018-12-30T12:44:22.835Z,1736
2018-12-30T12:45:22.506Z,1780
2018-12-30T12:46:22.271Z,1864
2018-12-30T12:47:22.501Z,1948
2018-12-30T12:48:22.236Z,2064
2018-12-30T12:49:22.477Z,2212
2018-12-30T12:50:22.490Z,2288
2018-12-30T12:51:21.969Z,2276
2018-12-30T12:52:22.473Z,2204
2018-12-30T12:53:23.496Z,2060
2018-12-30T12:54:22.201Z,1916
2018-12-30T12:55:22.471Z,1872
2018-12-30T12:56:22.442Z,1836
2018-12-30T12:57:22.170Z,1788
2018-12-30T12:58:22.172Z,1760
2018-12-30T12:59:22.416Z,1812
2018-12-30T13:00:22.442Z,1828
2018-12-30T13:01:22.146Z,1816
2018-12-30T13:02:22.433Z,1828
2018-12-30T13:03:22.387Z,1904
2018-12-30T13:04:22.131Z,1988
2018-12-30T13:05:22.123Z,2040
2018-12-30T13:06:21.898Z,2036
2018-12-30T13:07:21.877Z,2000
2018-12-30T13:08:22.111Z,1960
2018-12-30T13:09:22.362Z,1940
2018-12-30T13:10:22.184Z,1840
2018-12-30T13:11:22.455Z,1664
2018-12-30T13:12:22.090Z,1480
2018-12-30T13:13:22.332Z,1372
2018-12-30T13:14:22.085Z,1312
2018-12-30T13:15:22.045Z,1224
2018-12-30T13:16:21.806Z,1184
2018-12-30T13:17:22.297Z,1200
2018-12-30T13:18:22.030Z,1220
2018-12-30T13:19:22.285Z,1244
2018-12-30T13:20:22.025Z,1232
2018-12-30T13:21:22.280Z,1224
2018-12-30T13:22:22.001Z,1208
2018-12-30T13:23:22.250Z,1268
2018-12-30T13:24:21.753Z,1336
2018-12-30T13:25:21.990Z,1392
2018-12-30T13:26:22.007Z,1436
2018-12-30T13:27:22.256Z,1428
2018-12-30T13:28:22.321Z,1364
2018-12-30T13:29:21.978Z,1248
2018-12-30T13:30:22.269Z,1164
2018-12-30T13:31:22.204Z,1164
2018-12-30T13:32:22.199Z,1252
2018-12-30T13:33:22.202Z,1420
2018-12-30T13:34:23.824Z,1620
2018-12-30T13:35:22.836Z,1724
2018-12-30T13:36:21.926Z,1700
2018-12-30T13:37:22.190Z,1712
2018-12-30T13:38:28.207Z,1844
2018-12-30T13:39:21.893Z,1960
2018-12-30T13:40:22.736Z,1972
2018-12-30T13:41:21.676Z,1924
2018-12-30T13:42:21.657Z,1880
2018-12-30T13:43:21.892Z,1908
2018-12-30T13:44:21.868Z,1956
2018-12-30T13:45:21.967Z,1904
2018-12-30T13:46:21.908Z,1828
2018-12-30T13:47:21.851Z,1736
2018-12-30T13:48:22.075Z,1652
2018-12-30T13:49:22.063Z,1580
2018-12-30T13:50:22.128Z,1492
2018-12-30T13:51:21.583Z,1400
2018-12-30T13:52:23.080Z,1284
2018-12-30T13:53:21.791Z,1252
2018-12-30T13:54:22.051Z,1288
2018-12-30T13:55:22.047Z,1308
2018-12-30T13:56:21.794Z,1348
2018-12-30T13:57:21.769Z,1408
2018-12-30T13:58:21.778Z,1456
2018-12-30T13:59:22.008Z,1560
2018-12-30T14:00:24.574Z,1620
2018-12-30T14:01:22.003Z,1656
2018-12-30T14:02:21.742Z,1664
2018-12-30T14:03:21.982Z,1588
2018-12-30T14:04:21.975Z,1504